Time;durP1;ratioP1;P1;durP2;ratioP2;P2;SDS_P1;SDS_P2;PMS_P1;PMS_P2;Temp;Humidity;BMP_temperature;BMP_pressure;BME280_temperature;BME280_humidity;BME280_pressure;Samples;Min_cycle;Max_cycle;Signal;HPM_P1;HPM_P2
2022/03/16 00:01:49;;;;;;;;;;;6.20;99.90;;;;;;5140838;27;20009;-82
2022/03/16 00:04:14;;;;;;;;;;;6.10;99.90;;;;;;5152851;27;20607;-82
2022/03/16 00:06:40;;;;;;;;;;;6.20;99.90;;;;;;5141123;27;19923;-82
2022/03/16 00:09:05;;;;;;;;;;;6.10;99.90;;;;;;5139076;27;19930;-82
2022/03/16 00:11:31;;;;;;;;;;;6.00;99.90;;;;;;5150683;27;20282;-85
2022/03/16 00:13:57;;;;;;;;;;;6.00;99.90;;;;;;5140439;27;19922;-82
2022/03/16 00:16:23;;;;;;;;;;;6.00;99.90;;;;;;5151710;27;19923;-82
2022/03/16 00:18:48;;;;;;;;;;;6.00;99.90;;;;;;5146805;27;19930;-82
2022/03/16 00:21:14;;;;;;;;;;;6.00;99.90;;;;;;5125697;27;19947;-82
2022/03/16 00:23:39;;;;;;;;;;;6.00;99.90;;;;;;5143630;27;19922;-83
2022/03/16 00:26:05;;;;;;;;;;;5.80;99.90;;;;;;5142748;27;19923;-82
2022/03/16 00:28:30;;;;;;;;;;;5.90;99.90;;;;;;5130714;27;19930;-82
2022/03/16 00:30:56;;;;;;;;;;;5.90;99.90;;;;;;5139784;27;20330;-83
2022/03/16 00:33:21;;;;;;;;;;;5.80;99.90;;;;;;5137647;27;19945;-82
2022/03/16 00:35:47;;;;;;;;;;;5.70;99.90;;;;;;5136853;27;19934;-82
2022/03/16 00:38:16;;;;;;;;;;;5.80;99.90;;;;;;5122860;27;19937;-82
2022/03/16 00:40:42;;;;;;;;;;;5.70;99.90;;;;;;5103610;27;19923;-82
2022/03/16 00:43:08;;;;;;;;;;;5.70;99.90;;;;;;5144814;27;20009;-82
2022/03/16 00:45:33;;;;;;;;;;;5.70;99.90;;;;;;5133700;27;19954;-82
2022/03/16 00:47:59;;;;;;;;;;;5.60;99.90;;;;;;5119956;27;19968;-82
2022/03/16 00:50:24;;;;;;;;;;;5.60;99.90;;;;;;5126852;27;19930;-82
2022/03/16 00:52:50;;;;;;;;;;;5.60;99.90;;;;;;5132728;27;20014;-83
2022/03/16 00:55:16;;;;;;;;;;;5.70;99.90;;;;;;5144762;27;19930;-82
2022/03/16 00:57:41;;;;;;;;;;;5.60;99.90;;;;;;5136313;27;19958;-81
2022/03/16 01:00:07;;;;;;;;;;;5.60;99.90;;;;;;5125892;27;19927;-82
2022/03/16 01:02:33;;;;;;;;;;;5.60;99.90;;;;;;5134342;27;19922;-82
2022/03/16 01:04:59;;;;;;;;;;;5.50;99.90;;;;;;5122139;27;20316;-84
2022/03/16 01:07:24;;;;;;;;;;;5.40;99.90;;;;;;5156743;27;20018;-81
2022/03/16 01:09:50;;;;;;;;;;;5.30;99.90;;;;;;5139113;27;19930;-81
2022/03/16 01:12:15;;;;;;;;;;;5.20;99.90;;;;;;5135311;27;20409;-83
2022/03/16 01:14:41;;;;;;;;;;;5.20;99.90;;;;;;5119046;27;19983;-82
2022/03/16 01:17:07;;;;;;;;;;;5.20;99.90;;;;;;5118762;27;20017;-82
2022/03/16 01:19:34;;;;;;;;;;;5.20;99.90;;;;;;5118571;27;19931;-82
2022/03/16 01:22:01;;;;;;;;;;;5.30;99.90;;;;;;5128346;27;20013;-89
2022/03/16 01:24:27;;;;;;;;;;;5.30;99.90;;;;;;5113509;27;20367;-83
2022/03/16 01:26:52;;;;;;;;;;;5.20;99.90;;;;;;5116300;27;19944;-82
2022/03/16 01:29:18;;;;;;;;;;;5.20;99.90;;;;;;5135847;27;19927;-82
2022/03/16 01:31:43;;;;;;;;;;;5.20;99.90;;;;;;5103314;27;19923;-82
2022/03/16 01:34:09;;;;;;;;;;;5.20;99.90;;;;;;5120946;27;19923;-82
2022/03/16 01:36:34;;;;;;;;;;;5.20;99.90;;;;;;5155245;27;20388;-82
2022/03/16 01:39:00;;;;;;;;;;;5.00;99.90;;;;;;5138371;27;19934;-83
2022/03/16 01:41:26;;;;;;;;;;;4.90;99.90;;;;;;5151903;27;20331;-82
2022/03/16 01:43:56;;;;;;;;;;;4.90;99.90;;;;;;5120060;27;19927;-82
2022/03/16 01:46:22;;;;;;;;;;;4.90;99.90;;;;;;5129554;27;19923;-82
2022/03/16 01:48:47;;;;;;;;;;;4.80;99.90;;;;;;5123038;27;19934;-82
2022/03/16 01:51:13;;;;;;;;;;;4.80;99.90;;;;;;5123562;27;19923;-81
2022/03/16 01:53:40;;;;;;;;;;;4.90;99.90;;;;;;5125464;27;19923;-81
2022/03/16 01:56:06;;;;;;;;;;;4.90;99.90;;;;;;5139309;27;19946;-82
2022/03/16 01:58:31;;;;;;;;;;;4.90;99.90;;;;;;5140165;27;19923;-83
2022/03/16 02:00:57;;;;;;;;;;;4.90;99.90;;;;;;5107655;27;20023;-82
2022/03/16 02:03:22;;;;;;;;;;;4.80;99.90;;;;;;5120564;27;20373;-82
2022/03/16 02:05:48;;;;;;;;;;;4.90;99.90;;;;;;5123328;27;20000;-82
2022/03/16 02:08:14;;;;;;;;;;;4.80;99.90;;;;;;5160441;27;19930;-82
2022/03/16 02:10:40;;;;;;;;;;;4.90;99.90;;;;;;5142987;27;19978;-81
2022/03/16 02:13:07;;;;;;;;;;;4.90;99.90;;;;;;5122837;27;19974;-83
2022/03/16 02:15:33;;;;;;;;;;;4.80;99.90;;;;;;5122694;27;20367;-83
2022/03/16 02:17:58;;;;;;;;;;;4.80;99.90;;;;;;5124855;27;19975;-81
2022/03/16 02:20:25;;;;;;;;;;;4.70;99.90;;;;;;5121585;27;20363;-81
2022/03/16 02:22:51;;;;;;;;;;;4.80;99.90;;;;;;5146054;27;19927;-81
2022/03/16 02:25:18;;;;;;;;;;;4.90;99.90;;;;;;5151103;27;19967;-81
2022/03/16 02:27:43;;;;;;;;;;;4.80;99.90;;;;;;5105838;27;20298;-81
2022/03/16 02:30:09;;;;;;;;;;;4.80;99.90;;;;;;5159587;27;20013;-82
2022/03/16 02:32:35;;;;;;;;;;;4.70;99.90;;;;;;5144307;27;20275;-82
2022/03/16 02:35:00;;;;;;;;;;;4.70;99.90;;;;;;5140496;27;19926;-82
2022/03/16 02:37:26;;;;;;;;;;;4.70;99.90;;;;;;5144093;27;20360;-82
2022/03/16 02:39:51;;;;;;;;;;;4.70;99.90;;;;;;5122518;27;19979;-82
2022/03/16 02:42:17;;;;;;;;;;;4.70;99.90;;;;;;5157444;27;20397;-82
2022/03/16 02:44:43;;;;;;;;;;;4.70;99.90;;;;;;5139963;27;19923;-82
2022/03/16 02:47:08;;;;;;;;;;;4.70;99.90;;;;;;5148987;27;19966;-83
2022/03/16 02:49:34;;;;;;;;;;;4.60;99.90;;;;;;5159826;27;19930;-82
2022/03/16 02:52:05;;;;;;;;;;;4.60;99.90;;;;;;5153821;27;19944;-82
2022/03/16 02:54:30;;;;;;;;;;;4.60;99.90;;;;;;5133219;27;19923;-82
2022/03/16 02:56:56;;;;;;;;;;;4.60;99.90;;;;;;5149062;27;20278;-81
2022/03/16 02:59:21;;;;;;;;;;;4.70;99.90;;;;;;5122586;27;19927;-82
2022/03/16 03:01:47;;;;;;;;;;;4.60;99.90;;;;;;5128526;27;19927;-85
2022/03/16 03:04:12;;;;;;;;;;;4.50;99.90;;;;;;5139642;27;19923;-82
2022/03/16 03:06:38;;;;;;;;;;;4.50;99.90;;;;;;5129221;27;19975;-82
2022/03/16 03:09:04;;;;;;;;;;;4.50;99.90;;;;;;5139601;27;19924;-82
2022/03/16 03:11:29;;;;;;;;;;;4.50;99.90;;;;;;5127016;27;19929;-82
2022/03/16 03:13:55;;;;;;;;;;;4.50;99.90;;;;;;5145200;27;19923;-81
2022/03/16 03:16:20;;;;;;;;;;;4.40;99.90;;;;;;5121444;27;20312;-82
2022/03/16 03:18:46;;;;;;;;;;;4.30;99.90;;;;;;5156024;27;20013;-82
2022/03/16 03:21:12;;;;;;;;;;;4.20;99.90;;;;;;5138379;27;19923;-83
2022/03/16 03:23:37;;;;;;;;;;;4.20;99.90;;;;;;5134029;27;19926;-82
2022/03/16 03:26:03;;;;;;;;;;;4.20;99.90;;;;;;5121639;27;19923;-82
2022/03/16 03:28:28;;;;;;;;;;;4.30;99.90;;;;;;5145620;27;20415;-81
2022/03/16 03:30:54;;;;;;;;;;;4.30;99.90;;;;;;5146399;27;19945;-82
2022/03/16 03:33:19;;;;;;;;;;;4.30;99.90;;;;;;5144368;27;19984;-82
2022/03/16 03:35:45;;;;;;;;;;;4.30;99.90;;;;;;5148738;27;19923;-82
2022/03/16 03:38:13;;;;;;;;;;;4.30;99.90;;;;;;5117439;27;20009;-82
2022/03/16 03:40:38;;;;;;;;;;;4.20;99.90;;;;;;5133475;27;19927;-81
2022/03/16 03:43:04;;;;;;;;;;;4.10;99.90;;;;;;5147961;27;19922;-82
2022/03/16 03:45:31;;;;;;;;;;;4.20;99.90;;;;;;5129127;27;19923;-81
2022/03/16 03:47:57;;;;;;;;;;;4.10;99.90;;;;;;5140384;27;19972;-81
2022/03/16 03:50:22;;;;;;;;;;;4.00;99.90;;;;;;5121091;27;19927;-82
2022/03/16 03:52:48;;;;;;;;;;;3.90;99.90;;;;;;5115659;27;19933;-82
2022/03/16 03:55:13;;;;;;;;;;;3.90;99.90;;;;;;5120352;27;19930;-86
2022/03/16 03:57:39;;;;;;;;;;;4.00;99.90;;;;;;5137701;27;19923;-81
2022/03/16 04:00:06;;;;;;;;;;;4.10;99.90;;;;;;5137963;27;19993;-81
2022/03/16 04:02:32;;;;;;;;;;;4.10;99.90;;;;;;5119447;27;19923;-82
2022/03/16 04:04:57;;;;;;;;;;;4.10;99.90;;;;;;5137467;27;19933;-81
2022/03/16 04:07:23;;;;;;;;;;;4.10;99.90;;;;;;5140695;27;19922;-81
2022/03/16 04:09:50;;;;;;;;;;;4.10;99.90;;;;;;5140680;27;19923;-81
2022/03/16 04:12:17;;;;;;;;;;;4.00;99.90;;;;;;5148285;27;19927;-84
2022/03/16 04:14:42;;;;;;;;;;;3.90;99.90;;;;;;5148169;27;20441;-81
2022/03/16 04:17:08;;;;;;;;;;;3.80;99.90;;;;;;5128897;27;20018;-81
2022/03/16 04:19:34;;;;;;;;;;;3.80;99.90;;;;;;5126180;27;20397;-82
2022/03/16 04:21:59;;;;;;;;;;;3.90;99.90;;;;;;5135547;27;20011;-81
2022/03/16 04:24:25;;;;;;;;;;;3.90;99.90;;;;;;5138522;27;19973;-86
2022/03/16 04:26:50;;;;;;;;;;;3.90;99.90;;;;;;5132376;27;19927;-82
2022/03/16 04:29:16;;;;;;;;;;;4.00;99.90;;;;;;5111268;27;20014;-82
2022/03/16 04:31:42;;;;;;;;;;;4.10;99.90;;;;;;5135376;27;19930;-82
2022/03/16 04:34:07;;;;;;;;;;;4.10;99.90;;;;;;5120257;27;20076;-81
2022/03/16 04:36:33;;;;;;;;;;;4.00;99.90;;;;;;5138779;27;19923;-82
2022/03/16 04:38:58;;;;;;;;;;;4.10;99.90;;;;;;5151311;27;19931;-81
2022/03/16 04:41:24;;;;;;;;;;;4.10;99.90;;;;;;5129509;27;19923;-82
2022/03/16 04:43:50;;;;;;;;;;;4.10;99.90;;;;;;5151178;27;19970;-82
2022/03/16 04:46:15;;;;;;;;;;;4.20;99.90;;;;;;5137752;27;20007;-81
2022/03/16 04:48:41;;;;;;;;;;;4.30;99.90;;;;;;5119815;27;19948;-81
2022/03/16 04:51:06;;;;;;;;;;;4.20;99.90;;;;;;5139607;27;19923;-81
2022/03/16 04:53:32;;;;;;;;;;;4.30;99.90;;;;;;5132936;27;20278;-82
2022/03/16 04:55:58;;;;;;;;;;;4.20;99.90;;;;;;5149990;27;19926;-81
2022/03/16 04:58:23;;;;;;;;;;;4.20;99.90;;;;;;5119669;27;20346;-82
2022/03/16 05:00:49;;;;;;;;;;;4.20;99.90;;;;;;5137377;27;19970;-82
2022/03/16 05:03:14;;;;;;;;;;;4.20;99.90;;;;;;5157786;27;19975;-81
2022/03/16 05:05:40;;;;;;;;;;;4.20;99.90;;;;;;5150676;27;20433;-81
2022/03/16 05:08:06;;;;;;;;;;;4.20;99.90;;;;;;5119962;27;19930;-82
2022/03/16 05:10:31;;;;;;;;;;;4.30;99.90;;;;;;5119691;27;19930;-82
2022/03/16 05:12:57;;;;;;;;;;;4.30;99.90;;;;;;5139247;27;19923;-81
2022/03/16 05:15:22;;;;;;;;;;;4.30;99.90;;;;;;5118982;27;19937;-82
2022/03/16 05:17:48;;;;;;;;;;;4.30;99.90;;;;;;5120790;27;20287;-81
2022/03/16 05:20:14;;;;;;;;;;;4.30;99.90;;;;;;5134811;27;19968;-80
2022/03/16 05:22:41;;;;;;;;;;;4.40;99.90;;;;;;5140130;27;20060;-81
2022/03/16 05:25:07;;;;;;;;;;;4.40;99.90;;;;;;5149257;27;19923;-82
2022/03/16 05:27:32;;;;;;;;;;;4.40;99.90;;;;;;5132944;27;20285;-83
2022/03/16 05:29:58;;;;;;;;;;;4.40;99.90;;;;;;5134208;27;19926;-82
2022/03/16 05:32:23;;;;;;;;;;;4.40;99.90;;;;;;5132720;27;19923;-85
2022/03/16 05:34:49;;;;;;;;;;;4.40;99.90;;;;;;5158005;27;19945;-83
2022/03/16 05:37:14;;;;;;;;;;;4.50;99.90;;;;;;5159542;27;19926;-84
2022/03/16 05:39:40;;;;;;;;;;;4.50;99.90;;;;;;5140318;27;19923;-82
2022/03/16 05:42:06;;;;;;;;;;;4.50;99.90;;;;;;5135674;27;20013;-82
2022/03/16 05:44:31;;;;;;;;;;;4.50;99.90;;;;;;5160838;27;19950;-80
2022/03/16 05:46:57;;;;;;;;;;;4.50;99.90;;;;;;5123044;27;19937;-82
2022/03/16 05:49:25;;;;;;;;;;;4.60;99.90;;;;;;5124073;27;20282;-83
2022/03/16 05:51:51;;;;;;;;;;;4.60;99.90;;;;;;5119951;27;20006;-82
2022/03/16 05:54:16;;;;;;;;;;;4.50;99.90;;;;;;5122276;27;19998;-82
2022/03/16 05:56:42;;;;;;;;;;;4.50;99.90;;;;;;5139789;27;19923;-82
2022/03/16 05:59:07;;;;;;;;;;;4.50;99.90;;;;;;5124780;27;19927;-81
2022/03/16 06:01:33;;;;;;;;;;;4.50;99.90;;;;;;5122919;27;19923;-82
2022/03/16 06:03:59;;;;;;;;;;;4.50;99.90;;;;;;5155721;27;19929;-81
2022/03/16 06:06:26;;;;;;;;;;;4.60;99.90;;;;;;5106090;27;19930;-82
2022/03/16 06:08:52;;;;;;;;;;;4.50;99.90;;;;;;5139662;27;19933;-82
2022/03/16 06:11:18;;;;;;;;;;;4.50;99.90;;;;;;5149148;27;20017;-82
2022/03/16 06:13:43;;;;;;;;;;;4.50;99.90;;;;;;5160505;27;19931;-83
2022/03/16 06:16:09;;;;;;;;;;;4.50;99.90;;;;;;5126320;27;20383;-82
2022/03/16 06:18:34;;;;;;;;;;;4.60;99.90;;;;;;5124342;27;19923;-83
2022/03/16 06:21:00;;;;;;;;;;;4.60;99.90;;;;;;5160345;27;19923;-82
2022/03/16 06:23:26;;;;;;;;;;;4.60;99.90;;;;;;5160288;27;20279;-82
2022/03/16 06:25:51;;;;;;;;;;;4.60;99.90;;;;;;5154506;27;19930;-82
2022/03/16 06:28:17;;;;;;;;;;;4.50;99.90;;;;;;5156274;27;19923;-82
2022/03/16 06:30:42;;;;;;;;;;;4.50;99.90;;;;;;5138538;27;19975;-82
2022/03/16 06:33:08;;;;;;;;;;;4.50;99.90;;;;;;5122269;27;19950;-82
2022/03/16 06:35:34;;;;;;;;;;;4.50;99.90;;;;;;5127458;27;19926;-82
2022/03/16 06:37:59;;;;;;;;;;;4.60;99.90;;;;;;5105392;27;19923;-82
2022/03/16 06:40:25;;;;;;;;;;;4.70;99.90;;;;;;5122672;27;19926;-82
2022/03/16 06:42:55;;;;;;;;;;;4.60;99.90;;;;;;5125095;27;19959;-83
2022/03/16 06:45:22;;;;;;;;;;;4.60;99.90;;;;;;5139659;27;19927;-82
2022/03/16 06:47:48;;;;;;;;;;;4.70;99.90;;;;;;5123278;27;19970;-82
2022/03/16 06:50:13;;;;;;;;;;;4.80;99.90;;;;;;5142411;27;20367;-82
2022/03/16 06:52:40;;;;;;;;;;;4.80;99.90;;;;;;5147498;27;19923;-82
2022/03/16 06:55:06;;;;;;;;;;;4.90;99.90;;;;;;5128532;27;19927;-82
2022/03/16 06:57:32;;;;;;;;;;;5.00;99.90;;;;;;5149124;27;19923;-86
2022/03/16 06:59:57;;;;;;;;;;;5.00;99.90;;;;;;5136507;27;19995;-84
2022/03/16 07:02:23;;;;;;;;;;;5.10;99.90;;;;;;5118444;27;19923;-78
2022/03/16 07:04:48;;;;;;;;;;;5.10;99.90;;;;;;5156783;27;20034;-83
2022/03/16 07:07:14;;;;;;;;;;;5.20;99.90;;;;;;5127209;27;19923;-82
2022/03/16 07:09:40;;;;;;;;;;;5.30;99.90;;;;;;5121592;27;19976;-82
2022/03/16 07:12:06;;;;;;;;;;;5.20;99.90;;;;;;5122009;27;20306;-81
2022/03/16 07:14:32;;;;;;;;;;;5.40;99.90;;;;;;5124778;27;19986;-82
2022/03/16 07:16:57;;;;;;;;;;;5.50;99.90;;;;;;5159371;27;19926;-80
2022/03/16 07:19:23;;;;;;;;;;;5.50;99.90;;;;;;5177749;27;19923;-81
2022/03/16 07:21:49;;;;;;;;;;;5.60;99.90;;;;;;5158637;27;19930;-81
2022/03/16 07:24:14;;;;;;;;;;;5.60;99.90;;;;;;5155263;27;20010;-81
2022/03/16 07:26:40;;;;;;;;;;;5.60;99.90;;;;;;5138648;27;19923;-81
2022/03/16 07:29:05;;;;;;;;;;;5.70;99.90;;;;;;5138572;27;20006;-85
2022/03/16 07:31:31;;;;;;;;;;;5.70;99.90;;;;;;5157699;27;19923;-85
2022/03/16 07:33:57;;;;;;;;;;;5.80;99.90;;;;;;5140322;27;20363;-85
2022/03/16 07:36:23;;;;;;;;;;;5.80;99.90;;;;;;5132203;27;19947;-86
2022/03/16 07:38:49;;;;;;;;;;;5.80;99.90;;;;;;5120696;27;19923;-87
2022/03/16 07:41:15;;;;;;;;;;;5.90;99.90;;;;;;5126848;27;19923;-86
2022/03/16 07:43:41;;;;;;;;;;;6.00;99.90;;;;;;5151941;27;19923;-87
2022/03/16 07:46:06;;;;;;;;;;;6.10;99.90;;;;;;5158523;27;20013;-87
2022/03/16 07:48:34;;;;;;;;;;;6.20;99.90;;;;;;5119355;27;19923;-86
2022/03/16 07:51:00;;;;;;;;;;;6.20;99.90;;;;;;5156074;27;19930;-87
2022/03/16 07:53:25;;;;;;;;;;;6.20;99.90;;;;;;5158224;27;20255;-82
2022/03/16 07:55:55;;;;;;;;;;;6.30;99.90;;;;;;5140904;27;19926;-84
2022/03/16 07:58:21;;;;;;;;;;;6.30;99.90;;;;;;5141027;27;20277;-84
2022/03/16 08:00:46;;;;;;;;;;;6.50;99.90;;;;;;5137633;27;19923;-83
2022/03/16 08:03:13;;;;;;;;;;;6.50;99.90;;;;;;5137826;27;19929;-85
2022/03/16 08:05:39;;;;;;;;;;;6.50;99.90;;;;;;5156243;27;19927;-85
2022/03/16 08:08:05;;;;;;;;;;;6.70;99.90;;;;;;5116566;27;19976;-84
2022/03/16 08:10:30;;;;;;;;;;;6.80;99.90;;;;;;5120685;27;20278;-87
2022/03/16 08:12:56;;;;;;;;;;;6.90;99.90;;;;;;5120511;27;19934;-87
2022/03/16 08:15:22;;;;;;;;;;;6.90;99.90;;;;;;5137661;27;19975;-87
2022/03/16 08:17:47;;;;;;;;;;;7.00;99.90;;;;;;5120948;27;19934;-88
2022/03/16 08:20:13;;;;;;;;;;;7.10;99.90;;;;;;5131179;27;19923;-88
2022/03/16 08:22:38;;;;;;;;;;;7.20;99.90;;;;;;5158568;27;19923;-78
2022/03/16 08:25:05;;;;;;;;;;;7.20;99.90;;;;;;5157997;27;20290;-79
2022/03/16 08:27:31;;;;;;;;;;;7.30;99.90;;;;;;5158042;27;19923;-80
2022/03/16 08:29:57;;;;;;;;;;;7.30;99.90;;;;;;5148800;27;19923;-80
2022/03/16 08:32:23;;;;;;;;;;;7.50;99.90;;;;;;5120295;27;19930;-78
2022/03/16 08:34:50;;;;;;;;;;;7.60;99.90;;;;;;5119566;27;19927;-86
2022/03/16 08:37:15;;;;;;;;;;;7.70;99.90;;;;;;5136597;27;19930;-85
2022/03/16 08:39:41;;;;;;;;;;;7.90;99.90;;;;;;5140819;27;19923;-81
2022/03/16 08:42:07;;;;;;;;;;;8.00;99.90;;;;;;5157144;27;19968;-81
2022/03/16 08:44:33;;;;;;;;;;;8.20;99.90;;;;;;5157537;27;19923;-80
2022/03/16 08:46:59;;;;;;;;;;;8.30;99.90;;;;;;5139734;27;20316;-84
2022/03/16 08:49:24;;;;;;;;;;;8.40;99.90;;;;;;5140225;27;19974;-81
2022/03/16 08:51:50;;;;;;;;;;;8.60;99.90;;;;;;5119410;27;19923;-81
2022/03/16 08:54:16;;;;;;;;;;;8.60;99.90;;;;;;5139186;27;19975;-80
2022/03/16 08:56:43;;;;;;;;;;;8.70;99.90;;;;;;5119956;27;19972;-81
2022/03/16 08:59:09;;;;;;;;;;;8.70;99.90;;;;;;5127454;27;20387;-80
2022/03/16 09:01:35;;;;;;;;;;;8.80;99.90;;;;;;5119602;27;19927;-82
2022/03/16 09:04:01;;;;;;;;;;;8.80;99.90;;;;;;5136358;27;20290;-81
2022/03/16 09:06:27;;;;;;;;;;;8.90;99.90;;;;;;5136781;27;19923;-80
2022/03/16 09:08:53;;;;;;;;;;;9.00;99.90;;;;;;5139884;27;20301;-81
2022/03/16 09:11:19;;;;;;;;;;;9.20;99.90;;;;;;5136526;27;19930;-81
2022/03/16 09:13:44;;;;;;;;;;;9.30;99.90;;;;;;5139744;27;19930;-80
2022/03/16 09:16:10;;;;;;;;;;;9.40;99.90;;;;;;5131409;27;20375;-80
2022/03/16 09:18:35;;;;;;;;;;;9.50;99.90;;;;;;5109408;27;20406;-80
2022/03/16 09:21:01;;;;;;;;;;;9.60;99.90;;;;;;5139706;27;19926;-80
2022/03/16 09:23:31;;;;;;;;;;;9.70;99.90;;;;;;5140072;27;19976;-80
2022/03/16 09:25:57;;;;;;;;;;;9.90;99.90;;;;;;5156978;27;19922;-81
2022/03/16 09:28:23;;;;;;;;;;;10.00;99.90;;;;;;5121490;27;19929;-81
2022/03/16 09:30:49;;;;;;;;;;;10.10;99.90;;;;;;5139783;27;19923;-81
2022/03/16 09:33:14;;;;;;;;;;;10.10;99.90;;;;;;5123469;27;19923;-80
2022/03/16 09:35:40;;;;;;;;;;;10.20;99.90;;;;;;5118674;27;19972;-81
2022/03/16 09:38:06;;;;;;;;;;;10.30;99.90;;;;;;5140108;27;19922;-80
2022/03/16 09:40:33;;;;;;;;;;;10.50;99.90;;;;;;5117773;27;20363;-81
2022/03/16 09:42:59;;;;;;;;;;;10.60;99.90;;;;;;5136033;27;19931;-80
2022/03/16 09:45:27;;;;;;;;;;;10.80;99.90;;;;;;5136438;27;19927;-80
2022/03/16 09:47:52;;;;;;;;;;;10.90;99.90;;;;;;5136242;27;19923;-80
2022/03/16 09:50:19;;;;;;;;;;;11.00;99.90;;;;;;5143137;27;20000;-80
2022/03/16 09:52:45;;;;;;;;;;;11.10;99.90;;;;;;5151124;27;19923;-80
2022/03/16 09:55:10;;;;;;;;;;;11.30;99.90;;;;;;5135977;27;19934;-80
2022/03/16 09:57:36;;;;;;;;;;;11.30;99.90;;;;;;5119735;27;20418;-80
2022/03/16 10:00:02;;;;;;;;;;;11.40;99.90;;;;;;5146100;27;19930;-80
2022/03/16 10:02:28;;;;;;;;;;;11.40;99.90;;;;;;5142786;27;19970;-81
2022/03/16 10:04:54;;;;;;;;;;;11.50;99.90;;;;;;5114883;27;19995;-82
2022/03/16 10:07:29;;;;;;;;;;;11.70;99.90;;;;;;5137774;27;20278;-81
2022/03/16 10:15:24;;;;;;;;;;;11.90;99.90;;;;;;5160397;27;19929;-81
2022/03/16 10:17:55;;;;;;;;;;;12.00;99.90;;;;;;5143542;27;19923;-81
2022/03/16 10:20:23;;;;;;;;;;;12.10;99.90;;;;;;5128843;27;19923;-81
2022/03/16 10:22:53;;;;;;;;;;;12.10;99.90;;;;;;5139840;27;20026;-82
2022/03/16 10:25:18;;;;;;;;;;;12.10;99.90;;;;;;5122221;27;20386;-81
2022/03/16 10:27:44;;;;;;;;;;;12.20;99.90;;;;;;5139290;27;19923;-82
2022/03/16 10:30:10;;;;;;;;;;;12.20;99.90;;;;;;5141326;27;19923;-81
2022/03/16 10:32:36;;;;;;;;;;;12.30;99.90;;;;;;5160350;27;19923;-81
2022/03/16 10:35:05;;;;;;;;;;;12.30;99.90;;;;;;5142345;27;20334;-81
2022/03/16 10:37:31;;;;;;;;;;;12.30;99.90;;;;;;5159751;27;20381;-81
2022/03/16 10:39:58;;;;;;;;;;;12.40;99.90;;;;;;5159453;27;20432;-82
2022/03/16 10:48:01;;;;;;;;;;;12.70;99.90;;;;;;5159188;27;19927;-84
2022/03/16 10:50:27;;;;;;;;;;;12.80;99.90;;;;;;5137233;27;19930;-85
2022/03/16 10:52:53;;;;;;;;;;;12.90;99.90;;;;;;5121704;27;20006;-83
2022/03/16 10:55:19;;;;;;;;;;;12.90;99.90;;;;;;5121569;27;19927;-83
2022/03/16 10:57:49;;;;;;;;;;;13.00;99.90;;;;;;5111731;27;20282;-83
2022/03/16 11:00:15;;;;;;;;;;;13.00;99.90;;;;;;5138256;27;19954;-82
2022/03/16 11:02:43;;;;;;;;;;;13.00;99.90;;;;;;5158376;27;19996;-82
2022/03/16 11:05:09;;;;;;;;;;;13.00;99.90;;;;;;5141351;27;19923;-84
2022/03/16 11:07:36;;;;;;;;;;;13.00;99.90;;;;;;5123135;27;19976;-79
2022/03/16 11:10:04;;;;;;;;;;;13.10;99.90;;;;;;5138379;27;20358;-79
2022/03/16 11:15:13;;;;;;;;;;;13.40;99.90;;;;;;5137658;27;20017;-79
2022/03/16 11:17:40;;;;;;;;;;;13.50;99.90;;;;;;5145912;27;20005;-79
2022/03/16 11:20:08;;;;;;;;;;;13.60;99.90;;;;;;5141115;27;19927;-79
2022/03/16 11:24:15;;;;;;;;;;;13.70;99.90;;;;;;5119206;27;19923;-79
2022/03/16 11:25:41;;;;;;;;;;;13.80;99.90;;;;;;5136668;27;20615;-78
2022/03/16 11:28:11;;;;;;;;;;;14.00;99.90;;;;;;5146890;27;20013;-79
2022/03/16 11:30:37;;;;;;;;;;;14.10;99.90;;;;;;5141525;27;20401;-80
2022/03/16 11:33:07;;;;;;;;;;;14.10;99.90;;;;;;5144567;27;19975;-79
2022/03/16 11:35:34;;;;;;;;;;;14.30;99.90;;;;;;5121450;27;19935;-85
2022/03/16 11:38:04;;;;;;;;;;;14.30;99.90;;;;;;5152590;27;20334;-83
2022/03/16 11:40:30;;;;;;;;;;;14.50;99.90;;;;;;5139358;27;19923;-84
2022/03/16 11:43:04;;;;;;;;;;;14.60;99.90;;;;;;5146674;27;19927;-85
2022/03/16 11:45:41;;;;;;;;;;;14.70;99.90;;;;;;5141072;27;20097;-84
2022/03/16 11:48:25;;;;;;;;;;;14.90;99.90;;;;;;5125168;27;19923;-85
2022/03/16 11:53:51;;;;;;;;;;;15.30;99.90;;;;;;5140815;27;19983;-83
2022/03/16 11:56:20;;;;;;;;;;;15.50;99.90;;;;;;5139039;27;19930;-83
2022/03/16 11:58:47;;;;;;;;;;;15.50;99.90;;;;;;5140379;27;19927;-84
2022/03/16 12:01:23;;;;;;;;;;;15.40;98.50;;;;;;5148706;27;20002;-83
2022/03/16 12:03:52;;;;;;;;;;;15.60;98.60;;;;;;5120219;27;19930;-85
2022/03/16 12:06:19;;;;;;;;;;;15.70;98.10;;;;;;5120522;27;19966;-85
2022/03/16 12:08:51;;;;;;;;;;;15.70;98.80;;;;;;5137481;27;19989;-83
2022/03/16 12:14:05;;;;;;;;;;;15.80;96.60;;;;;;5137275;27;19927;-85
2022/03/16 12:16:40;;;;;;;;;;;16.00;97.80;;;;;;5140639;27;19927;-84
2022/03/16 12:19:25;;;;;;;;;;;15.90;96.40;;;;;;5118973;27;19934;-84
2022/03/16 12:21:50;;;;;;;;;;;15.90;95.20;;;;;;5149998;27;19927;-85
2022/03/16 12:30:00;;;;;;;;;;;16.00;96.20;;;;;;5126049;27;19934;-88
2022/03/16 12:32:27;;;;;;;;;;;16.10;95.50;;;;;;5119450;27;19923;-87
2022/03/16 12:34:56;;;;;;;;;;;16.20;95.80;;;;;;5119796;27;19966;-87
2022/03/16 12:37:23;;;;;;;;;;;16.20;97.10;;;;;;5127779;27;19923;-85
2022/03/16 12:39:49;;;;;;;;;;;16.00;94.60;;;;;;5102316;27;20643;-88
2022/03/16 12:42:33;;;;;;;;;;;15.90;96.00;;;;;;5119466;27;20027;-86
2022/03/16 12:45:09;;;;;;;;;;;15.70;95.30;;;;;;5119132;27;19934;-86
2022/03/16 12:47:40;;;;;;;;;;;15.70;96.20;;;;;;5136726;27;19923;-83
2022/03/16 12:50:09;;;;;;;;;;;15.80;96.40;;;;;;5136649;27;20379;-84
2022/03/16 12:52:37;;;;;;;;;;;15.80;96.10;;;;;;5137063;27;19977;-83
2022/03/16 12:55:08;;;;;;;;;;;15.90;96.30;;;;;;5106913;27;19923;-82
2022/03/16 12:57:33;;;;;;;;;;;16.10;96.20;;;;;;5156994;27;19922;-85
2022/03/16 13:00:05;;;;;;;;;;;16.10;96.30;;;;;;5152784;27;19923;-84
2022/03/16 13:02:32;;;;;;;;;;;16.20;95.10;;;;;;5127166;27;19926;-85
2022/03/16 13:04:58;;;;;;;;;;;16.40;95.20;;;;;;5119206;27;19930;-85
2022/03/16 13:07:27;;;;;;;;;;;16.30;95.50;;;;;;5124917;27;20275;-86
2022/03/16 13:09:53;;;;;;;;;;;16.40;93.50;;;;;;5140509;27;19937;-87
2022/03/16 13:12:21;;;;;;;;;;;16.40;93.80;;;;;;5144958;27;20389;-83
2022/03/16 13:14:47;;;;;;;;;;;16.20;93.30;;;;;;5130316;27;20388;-87
2022/03/16 13:17:14;;;;;;;;;;;16.20;93.40;;;;;;5101923;27;19930;-86
2022/03/16 13:19:43;;;;;;;;;;;16.20;93.70;;;;;;5134650;27;20009;-82
2022/03/16 13:22:17;;;;;;;;;;;16.00;93.10;;;;;;5137973;27;19977;-89
2022/03/16 13:24:57;;;;;;;;;;;15.80;93.50;;;;;;5125548;27;19923;-86
2022/03/16 13:27:33;;;;;;;;;;;15.70;93.60;;;;;;5138493;27;19923;-84
2022/03/16 13:29:59;;;;;;;;;;;15.80;93.70;;;;;;5147015;27;19927;-85
2022/03/16 13:32:34;;;;;;;;;;;15.90;92.60;;;;;;5125254;27;19946;-84
2022/03/16 13:35:09;;;;;;;;;;;15.90;91.50;;;;;;5133605;27;19927;-84
2022/03/16 13:37:35;;;;;;;;;;;15.70;92.90;;;;;;5137364;27;20022;-84
2022/03/16 13:40:11;;;;;;;;;;;15.80;94.30;;;;;;5137811;27;20018;-84
2022/03/16 13:42:37;;;;;;;;;;;16.10;93.30;;;;;;5129160;27;19976;-83
2022/03/16 13:45:32;;;;;;;;;;;16.30;93.50;;;;;;5157352;27;19937;-84
2022/03/16 13:48:14;;;;;;;;;;;16.50;91.80;;;;;;5139731;27;19926;-84
2022/03/16 13:50:41;;;;;;;;;;;16.40;93.10;;;;;;5156064;27;19930;-83
2022/03/16 13:53:27;;;;;;;;;;;16.50;91.90;;;;;;5133843;27;20367;-84
2022/03/16 13:55:53;;;;;;;;;;;16.30;92.20;;;;;;5133535;27;19922;-82
2022/03/16 13:58:23;;;;;;;;;;;16.20;92.50;;;;;;5129232;27;19923;-83
2022/03/16 14:00:51;;;;;;;;;;;16.00;93.10;;;;;;5139320;27;20406;-84
2022/03/16 14:03:22;;;;;;;;;;;15.80;92.80;;;;;;5139622;27;20005;-84
2022/03/16 14:05:48;;;;;;;;;;;15.80;93.70;;;;;;5141799;27;19923;-83
2022/03/16 14:08:14;;;;;;;;;;;15.70;93.70;;;;;;5141404;27;19930;-83
2022/03/16 14:10:42;;;;;;;;;;;15.50;93.40;;;;;;5159196;27;19947;-83
2022/03/16 14:13:11;;;;;;;;;;;15.40;93.80;;;;;;5159751;27;20017;-86
2022/03/16 14:15:40;;;;;;;;;;;15.20;94.20;;;;;;5142645;27;19927;-85
2022/03/16 14:18:10;;;;;;;;;;;15.10;94.30;;;;;;5137324;27;19927;-85
2022/03/16 14:20:37;;;;;;;;;;;14.90;94.90;;;;;;5157995;27;19927;-84
2022/03/16 14:23:04;;;;;;;;;;;14.90;95.60;;;;;;5141253;27;19929;-84
2022/03/16 14:25:37;;;;;;;;;;;14.80;96.40;;;;;;5144466;27;19992;-84
2022/03/16 14:28:03;;;;;;;;;;;14.70;96.00;;;;;;5142085;27;19923;-83
2022/03/16 14:30:31;;;;;;;;;;;14.50;96.30;;;;;;5130441;27;20367;-83
2022/03/16 14:33:00;;;;;;;;;;;14.50;97.00;;;;;;5135630;27;20006;-85
2022/03/16 14:35:27;;;;;;;;;;;14.50;97.40;;;;;;5146878;27;19927;-84
2022/03/16 14:37:53;;;;;;;;;;;14.50;97.80;;;;;;5146701;27;19923;-85
2022/03/16 14:40:21;;;;;;;;;;;14.50;98.50;;;;;;5125820;27;19927;-85
2022/03/16 14:42:50;;;;;;;;;;;14.60;99.10;;;;;;5148128;27;19923;-84
2022/03/16 14:45:16;;;;;;;;;;;14.70;99.00;;;;;;5146189;27;19969;-85
2022/03/16 14:47:42;;;;;;;;;;;14.70;99.10;;;;;;5131701;27;19923;-85
2022/03/16 14:50:08;;;;;;;;;;;14.60;98.60;;;;;;5127807;27;19987;-85